sensor_id;sensor_type;location;lat;lon;timestamp;P1;durP1;ratioP1;P2;durP2;ratioP2
37323;SDS011;23205;49.986;18.950;2022-08-04T00:04:05;39.40;;;22.45;;
37323;SDS011;23205;49.986;18.950;2022-08-04T00:09:48;34.05;;;21.00;;
37323;SDS011;23205;49.986;18.950;2022-08-04T00:14:55;34.88;;;22.17;;
37323;SDS011;23205;49.986;18.950;2022-08-04T00:19:59;34.10;;;21.70;;
37323;SDS011;23205;49.986;18.950;2022-08-04T00:25:02;30.88;;;21.35;;
37323;SDS011;23205;49.986;18.950;2022-08-04T00:30:07;38.55;;;23.05;;
37323;SDS011;23205;49.986;18.950;2022-08-04T00:35:09;37.83;;;21.98;;
37323;SDS011;23205;49.986;18.950;2022-08-04T00:40:31;32.80;;;22.08;;
37323;SDS011;23205;49.986;18.950;2022-08-04T00:46:24;31.40;;;20.92;;
37323;SDS011;23205;49.986;18.950;2022-08-04T00:51:22;42.88;;;23.25;;
37323;SDS011;23205;49.986;18.950;2022-08-04T01:07:30;30.38;;;20.95;;
37323;SDS011;23205;49.986;18.950;2022-08-04T01:18:17;31.42;;;21.63;;
37323;SDS011;23205;49.986;18.950;2022-08-04T01:34:10;32.30;;;20.88;;
37323;SDS011;23205;49.986;18.950;2022-08-04T01:39:13;38.55;;;23.02;;
37323;SDS011;23205;49.986;18.950;2022-08-04T01:44:34;34.85;;;23.35;;
37323;SDS011;23205;49.986;18.950;2022-08-04T01:49:36;32.67;;;22.15;;
37323;SDS011;23205;49.986;18.950;2022-08-04T01:54:40;33.42;;;22.60;;
37323;SDS011;23205;49.986;18.950;2022-08-04T01:59:41;36.20;;;23.52;;
37323;SDS011;23205;49.986;18.950;2022-08-04T02:04:45;31.90;;;21.67;;
37323;SDS011;23205;49.986;18.950;2022-08-04T02:09:51;31.17;;;21.08;;
37323;SDS011;23205;49.986;18.950;2022-08-04T02:20:24;36.63;;;23.50;;
37323;SDS011;23205;49.986;18.950;2022-08-04T02:25:48;35.58;;;23.30;;
37323;SDS011;23205;49.986;18.950;2022-08-04T02:36:16;36.92;;;23.20;;
37323;SDS011;23205;49.986;18.950;2022-08-04T02:41:24;34.80;;;23.98;;
37323;SDS011;23205;49.986;18.950;2022-08-04T02:46:27;34.83;;;24.23;;
37323;SDS011;23205;49.986;18.950;2022-08-04T02:51:29;38.00;;;26.30;;
37323;SDS011;23205;49.986;18.950;2022-08-04T02:56:34;37.03;;;25.55;;
37323;SDS011;23205;49.986;18.950;2022-08-04T03:01:37;34.38;;;24.33;;
37323;SDS011;23205;49.986;18.950;2022-08-04T04:16:24;44.97;;;28.48;;
37323;SDS011;23205;49.986;18.950;2022-08-04T04:32:34;43.78;;;29.77;;
37323;SDS011;23205;49.986;18.950;2022-08-04T04:48:03;47.25;;;27.08;;
37323;SDS011;23205;49.986;18.950;2022-08-04T04:53:16;48.80;;;28.27;;
37323;SDS011;23205;49.986;18.950;2022-08-04T04:58:27;53.88;;;29.10;;
37323;SDS011;23205;49.986;18.950;2022-08-04T05:04:15;45.83;;;26.23;;
37323;SDS011;23205;49.986;18.950;2022-08-04T05:24:28;28.80;;;20.33;;
37323;SDS011;23205;49.986;18.950;2022-08-04T05:29:33;28.10;;;18.92;;
37323;SDS011;23205;49.986;18.950;2022-08-04T05:34:41;28.58;;;20.08;;
37323;SDS011;23205;49.986;18.950;2022-08-04T05:39:48;27.65;;;20.02;;
37323;SDS011;23205;49.986;18.950;2022-08-04T05:44:53;28.05;;;19.48;;
37323;SDS011;23205;49.986;18.950;2022-08-04T05:49:55;26.08;;;16.35;;
37323;SDS011;23205;49.986;18.950;2022-08-04T05:54:57;29.05;;;18.10;;
37323;SDS011;23205;49.986;18.950;2022-08-04T06:00:00;30.80;;;18.08;;
37323;SDS011;23205;49.986;18.950;2022-08-04T06:05:04;24.33;;;16.42;;
37323;SDS011;23205;49.986;18.950;2022-08-04T06:10:06;27.77;;;17.83;;
37323;SDS011;23205;49.986;18.950;2022-08-04T06:15:08;21.35;;;16.38;;
37323;SDS011;23205;49.986;18.950;2022-08-04T06:20:14;23.58;;;16.38;;
37323;SDS011;23205;49.986;18.950;2022-08-04T06:25:17;24.55;;;15.80;;
37323;SDS011;23205;49.986;18.950;2022-08-04T06:30:23;22.83;;;15.63;;
37323;SDS011;23205;49.986;18.950;2022-08-04T06:35:26;24.42;;;15.93;;
37323;SDS011;23205;49.986;18.950;2022-08-04T06:40:31;24.10;;;15.70;;
37323;SDS011;23205;49.986;18.950;2022-08-04T06:45:34;18.63;;;14.50;;
37323;SDS011;23205;49.986;18.950;2022-08-04T06:50:38;19.98;;;14.10;;
37323;SDS011;23205;49.986;18.950;2022-08-04T06:55:46;17.70;;;13.20;;
37323;SDS011;23205;49.986;18.950;2022-08-04T07:00:49;17.10;;;12.52;;
37323;SDS011;23205;49.986;18.950;2022-08-04T07:05:51;17.70;;;11.77;;
37323;SDS011;23205;49.986;18.950;2022-08-04T07:10:52;17.50;;;12.48;;
37323;SDS011;23205;49.986;18.950;2022-08-04T07:15:54;18.92;;;13.45;;
37323;SDS011;23205;49.986;18.950;2022-08-04T07:20:57;17.05;;;11.82;;
37323;SDS011;23205;49.986;18.950;2022-08-04T07:25:58;17.83;;;12.75;;
37323;SDS011;23205;49.986;18.950;2022-08-04T07:30:59;18.10;;;10.70;;
37323;SDS011;23205;49.986;18.950;2022-08-04T07:36:02;15.75;;;11.45;;
37323;SDS011;23205;49.986;18.950;2022-08-04T07:41:03;14.30;;;10.63;;
37323;SDS011;23205;49.986;18.950;2022-08-04T07:46:05;13.02;;;9.45;;
37323;SDS011;23205;49.986;18.950;2022-08-04T07:51:06;15.10;;;9.50;;
37323;SDS011;23205;49.986;18.950;2022-08-04T07:56:07;13.48;;;8.65;;
37323;SDS011;23205;49.986;18.950;2022-08-04T08:01:10;13.02;;;8.90;;
37323;SDS011;23205;49.986;18.950;2022-08-04T08:06:11;12.57;;;8.38;;
37323;SDS011;23205;49.986;18.950;2022-08-04T08:11:12;13.00;;;8.77;;
37323;SDS011;23205;49.986;18.950;2022-08-04T08:16:15;10.02;;;7.70;;
37323;SDS011;23205;49.986;18.950;2022-08-04T08:21:21;11.10;;;7.15;;
37323;SDS011;23205;49.986;18.950;2022-08-04T08:26:22;11.43;;;7.85;;
37323;SDS011;23205;49.986;18.950;2022-08-04T08:31:25;11.68;;;8.25;;
37323;SDS011;23205;49.986;18.950;2022-08-04T08:36:38;8.15;;;6.93;;
37323;SDS011;23205;49.986;18.950;2022-08-04T08:47:13;10.27;;;5.80;;
37323;SDS011;23205;49.986;18.950;2022-08-04T08:53:15;7.63;;;5.60;;
37323;SDS011;23205;49.986;18.950;2022-08-04T08:58:11;9.48;;;6.35;;
37323;SDS011;23205;49.986;18.950;2022-08-04T09:14:41;7.72;;;6.10;;
37323;SDS011;23205;49.986;18.950;2022-08-04T09:20:00;8.23;;;5.72;;
37323;SDS011;23205;49.986;18.950;2022-08-04T09:35:48;8.82;;;5.90;;
37323;SDS011;23205;49.986;18.950;2022-08-04T09:46:41;9.70;;;6.80;;
37323;SDS011;23205;49.986;18.950;2022-08-04T09:52:15;7.53;;;5.60;;
37323;SDS011;23205;49.986;18.950;2022-08-04T09:57:40;8.05;;;5.35;;
37323;SDS011;23205;49.986;18.950;2022-08-04T10:02:58;10.70;;;6.68;;
37323;SDS011;23205;49.986;18.950;2022-08-04T10:18:47;10.20;;;5.60;;
37323;SDS011;23205;49.986;18.950;2022-08-04T10:29:25;8.38;;;5.15;;
37323;SDS011;23205;49.986;18.950;2022-08-04T10:34:35;8.20;;;5.45;;
37323;SDS011;23205;49.986;18.950;2022-08-04T10:40:06;6.30;;;5.00;;
37323;SDS011;23205;49.986;18.950;2022-08-04T10:45:26;9.13;;;5.03;;
37323;SDS011;23205;49.986;18.950;2022-08-04T10:50:48;6.43;;;4.97;;
37323;SDS011;23205;49.986;18.950;2022-08-04T10:56:03;6.60;;;4.45;;
37323;SDS011;23205;49.986;18.950;2022-08-04T11:01:11;7.90;;;4.85;;
37323;SDS011;23205;49.986;18.950;2022-08-04T11:06:19;7.30;;;4.20;;
37323;SDS011;23205;49.986;18.950;2022-08-04T11:21:42;5.75;;;4.20;;
37323;SDS011;23205;49.986;18.950;2022-08-04T11:26:57;8.32;;;4.40;;
37323;SDS011;23205;49.986;18.950;2022-08-04T11:32:01;5.60;;;3.95;;
37323;SDS011;23205;49.986;18.950;2022-08-04T11:37:22;7.97;;;4.22;;
37323;SDS011;23205;49.986;18.950;2022-08-04T11:42:29;5.28;;;4.20;;
37323;SDS011;23205;49.986;18.950;2022-08-04T11:48:34;6.60;;;3.67;;
37323;SDS011;23205;49.986;18.950;2022-08-04T11:53:28;5.15;;;3.60;;
37323;SDS011;23205;49.986;18.950;2022-08-04T11:58:39;5.65;;;3.65;;
37323;SDS011;23205;49.986;18.950;2022-08-04T12:09:55;6.38;;;3.35;;
37323;SDS011;23205;49.986;18.950;2022-08-04T12:14:57;5.70;;;3.65;;
37323;SDS011;23205;49.986;18.950;2022-08-04T12:20:16;7.40;;;3.53;;
37323;SDS011;23205;49.986;18.950;2022-08-04T12:25:32;4.40;;;3.05;;
37323;SDS011;23205;49.986;18.950;2022-08-04T12:30:36;5.35;;;3.10;;
37323;SDS011;23205;49.986;18.950;2022-08-04T12:36:11;4.53;;;3.17;;
37323;SDS011;23205;49.986;18.950;2022-08-04T12:41:08;4.90;;;2.78;;
37323;SDS011;23205;49.986;18.950;2022-08-04T12:46:12;4.90;;;3.08;;
37323;SDS011;23205;49.986;18.950;2022-08-04T12:51:22;4.50;;;2.72;;
37323;SDS011;23205;49.986;18.950;2022-08-04T12:56:27;3.95;;;3.03;;
37323;SDS011;23205;49.986;18.950;2022-08-04T13:01:30;4.07;;;3.08;;
37323;SDS011;23205;49.986;18.950;2022-08-04T13:06:33;6.32;;;3.10;;
37323;SDS011;23205;49.986;18.950;2022-08-04T13:11:42;5.07;;;3.38;;
37323;SDS011;23205;49.986;18.950;2022-08-04T13:16:48;4.63;;;3.22;;
37323;SDS011;23205;49.986;18.950;2022-08-04T13:21:58;7.68;;;3.50;;
37323;SDS011;23205;49.986;18.950;2022-08-04T13:27:06;4.53;;;3.25;;
37323;SDS011;23205;49.986;18.950;2022-08-04T13:32:16;5.65;;;2.83;;
37323;SDS011;23205;49.986;18.950;2022-08-04T13:37:20;7.30;;;3.53;;
37323;SDS011;23205;49.986;18.950;2022-08-04T13:42:25;8.48;;;2.55;;
37323;SDS011;23205;49.986;18.950;2022-08-04T13:47:28;8.45;;;3.03;;
37323;SDS011;23205;49.986;18.950;2022-08-04T13:52:31;5.75;;;2.80;;
37323;SDS011;23205;49.986;18.950;2022-08-04T13:57:42;5.22;;;3.10;;
37323;SDS011;23205;49.986;18.950;2022-08-04T14:03:01;4.85;;;3.17;;
37323;SDS011;23205;49.986;18.950;2022-08-04T14:08:06;4.68;;;3.17;;
37323;SDS011;23205;49.986;18.950;2022-08-04T14:13:31;6.72;;;3.63;;
37323;SDS011;23205;49.986;18.950;2022-08-04T14:18:33;10.73;;;3.35;;
37323;SDS011;23205;49.986;18.950;2022-08-04T14:23:39;5.50;;;3.05;;
37323;SDS011;23205;49.986;18.950;2022-08-04T14:28:54;4.50;;;3.28;;
37323;SDS011;23205;49.986;18.950;2022-08-04T14:34:05;7.28;;;3.30;;
37323;SDS011;23205;49.986;18.950;2022-08-04T14:39:07;5.15;;;3.17;;
37323;SDS011;23205;49.986;18.950;2022-08-04T14:44:10;5.97;;;3.53;;
37323;SDS011;23205;49.986;18.950;2022-08-04T14:49:11;7.32;;;2.92;;
37323;SDS011;23205;49.986;18.950;2022-08-04T14:54:13;6.43;;;3.63;;
37323;SDS011;23205;49.986;18.950;2022-08-04T14:59:14;6.85;;;3.85;;
37323;SDS011;23205;49.986;18.950;2022-08-04T15:04:15;7.93;;;3.00;;
37323;SDS011;23205;49.986;18.950;2022-08-04T15:09:18;11.15;;;3.80;;
37323;SDS011;23205;49.986;18.950;2022-08-04T15:14:20;7.57;;;3.85;;
37323;SDS011;23205;49.986;18.950;2022-08-04T15:19:23;5.15;;;3.75;;
37323;SDS011;23205;49.986;18.950;2022-08-04T15:24:24;11.45;;;6.68;;
37323;SDS011;23205;49.986;18.950;2022-08-04T15:39:54;10.38;;;4.70;;
37323;SDS011;23205;49.986;18.950;2022-08-04T15:45:09;7.40;;;3.97;;
37323;SDS011;23205;49.986;18.950;2022-08-04T15:50:16;5.88;;;3.72;;
37323;SDS011;23205;49.986;18.950;2022-08-04T16:11:08;5.85;;;3.83;;
37323;SDS011;23205;49.986;18.950;2022-08-04T16:26:49;4.55;;;3.28;;
37323;SDS011;23205;49.986;18.950;2022-08-04T16:37:10;6.97;;;3.58;;
37323;SDS011;23205;49.986;18.950;2022-08-04T16:42:28;7.65;;;3.90;;
37323;SDS011;23205;49.986;18.950;2022-08-04T16:52:48;6.82;;;3.17;;
37323;SDS011;23205;49.986;18.950;2022-08-04T16:57:51;9.43;;;3.80;;
37323;SDS011;23205;49.986;18.950;2022-08-04T17:02:54;9.82;;;3.30;;
37323;SDS011;23205;49.986;18.950;2022-08-04T17:07:57;8.27;;;3.53;;
37323;SDS011;23205;49.986;18.950;2022-08-04T17:12:59;10.02;;;4.47;;
37323;SDS011;23205;49.986;18.950;2022-08-04T17:18:15;14.65;;;6.05;;
37323;SDS011;23205;49.986;18.950;2022-08-04T17:23:32;12.80;;;8.40;;
37323;SDS011;23205;49.986;18.950;2022-08-04T17:28:33;53.80;;;31.50;;
37323;SDS011;23205;49.986;18.950;2022-08-04T17:33:37;94.75;;;50.50;;
37323;SDS011;23205;49.986;18.950;2022-08-04T17:38:40;59.40;;;33.53;;
37323;SDS011;23205;49.986;18.950;2022-08-04T17:43:46;20.23;;;11.70;;
37323;SDS011;23205;49.986;18.950;2022-08-04T17:48:54;11.77;;;6.15;;
37323;SDS011;23205;49.986;18.950;2022-08-04T17:53:58;12.30;;;6.82;;
37323;SDS011;23205;49.986;18.950;2022-08-04T18:09:33;13.60;;;6.07;;
37323;SDS011;23205;49.986;18.950;2022-08-04T18:14:45;13.32;;;5.50;;
37323;SDS011;23205;49.986;18.950;2022-08-04T18:19:49;9.07;;;5.20;;
37323;SDS011;23205;49.986;18.950;2022-08-04T18:24:51;9.35;;;4.47;;
37323;SDS011;23205;49.986;18.950;2022-08-04T18:29:52;13.82;;;6.35;;
37323;SDS011;23205;49.986;18.950;2022-08-04T18:34:54;11.13;;;6.07;;
37323;SDS011;23205;49.986;18.950;2022-08-04T18:39:57;11.48;;;5.40;;
37323;SDS011;23205;49.986;18.950;2022-08-04T18:45:00;9.18;;;4.88;;
37323;SDS011;23205;49.986;18.950;2022-08-04T18:50:02;14.20;;;5.60;;
37323;SDS011;23205;49.986;18.950;2022-08-04T18:55:04;10.82;;;5.25;;
37323;SDS011;23205;49.986;18.950;2022-08-04T19:00:05;11.45;;;4.97;;
37323;SDS011;23205;49.986;18.950;2022-08-04T19:05:10;17.70;;;4.85;;
37323;SDS011;23205;49.986;18.950;2022-08-04T19:10:12;12.30;;;5.00;;
37323;SDS011;23205;49.986;18.950;2022-08-04T19:15:13;9.35;;;4.95;;
37323;SDS011;23205;49.986;18.950;2022-08-04T19:20:14;10.45;;;4.93;;
37323;SDS011;23205;49.986;18.950;2022-08-04T19:25:15;12.98;;;5.40;;
37323;SDS011;23205;49.986;18.950;2022-08-04T19:30:16;12.63;;;5.55;;
37323;SDS011;23205;49.986;18.950;2022-08-04T19:35:17;8.63;;;5.00;;
37323;SDS011;23205;49.986;18.950;2022-08-04T19:40:18;13.32;;;5.20;;
37323;SDS011;23205;49.986;18.950;2022-08-04T19:45:19;9.98;;;5.35;;
37323;SDS011;23205;49.986;18.950;2022-08-04T19:50:21;19.15;;;5.65;;
37323;SDS011;23205;49.986;18.950;2022-08-04T19:55:26;17.25;;;7.57;;
37323;SDS011;23205;49.986;18.950;2022-08-04T20:00:26;16.10;;;7.07;;
37323;SDS011;23205;49.986;18.950;2022-08-04T20:05:28;13.68;;;7.22;;
37323;SDS011;23205;49.986;18.950;2022-08-04T20:10:31;13.43;;;7.70;;
37323;SDS011;23205;49.986;18.950;2022-08-04T20:15:32;11.93;;;6.70;;
37323;SDS011;23205;49.986;18.950;2022-08-04T20:20:33;13.23;;;6.50;;
37323;SDS011;23205;49.986;18.950;2022-08-04T20:25:33;16.02;;;5.78;;
37323;SDS011;23205;49.986;18.950;2022-08-04T20:30:34;9.93;;;6.07;;
37323;SDS011;23205;49.986;18.950;2022-08-04T20:35:35;14.48;;;6.07;;
37323;SDS011;23205;49.986;18.950;2022-08-04T20:40:36;10.73;;;6.30;;
37323;SDS011;23205;49.986;18.950;2022-08-04T20:45:37;12.40;;;6.65;;
37323;SDS011;23205;49.986;18.950;2022-08-04T20:50:44;14.27;;;6.40;;
37323;SDS011;23205;49.986;18.950;2022-08-04T20:55:50;11.35;;;6.50;;
37323;SDS011;23205;49.986;18.950;2022-08-04T21:00:51;10.30;;;5.85;;
37323;SDS011;23205;49.986;18.950;2022-08-04T21:06:01;11.18;;;5.75;;
37323;SDS011;23205;49.986;18.950;2022-08-04T21:16:06;9.88;;;5.65;;
37323;SDS011;23205;49.986;18.950;2022-08-04T21:21:11;10.63;;;6.70;;
37323;SDS011;23205;49.986;18.950;2022-08-04T21:26:19;10.88;;;7.07;;
37323;SDS011;23205;49.986;18.950;2022-08-04T21:31:22;10.90;;;6.32;;
37323;SDS011;23205;49.986;18.950;2022-08-04T21:36:26;14.20;;;6.05;;
37323;SDS011;23205;49.986;18.950;2022-08-04T21:41:31;17.92;;;7.57;;
37323;SDS011;23205;49.986;18.950;2022-08-04T21:46:36;12.27;;;6.70;;
37323;SDS011;23205;49.986;18.950;2022-08-04T21:51:38;9.38;;;6.07;;
37323;SDS011;23205;49.986;18.950;2022-08-04T21:56:43;14.48;;;6.88;;
37323;SDS011;23205;49.986;18.950;2022-08-04T22:01:48;10.80;;;5.80;;
37323;SDS011;23205;49.986;18.950;2022-08-04T22:06:50;11.23;;;7.03;;
37323;SDS011;23205;49.986;18.950;2022-08-04T22:11:51;12.32;;;6.57;;
37323;SDS011;23205;49.986;18.950;2022-08-04T22:16:51;15.52;;;8.57;;
37323;SDS011;23205;49.986;18.950;2022-08-04T22:21:55;15.23;;;8.95;;
37323;SDS011;23205;49.986;18.950;2022-08-04T22:26:56;16.35;;;9.73;;
37323;SDS011;23205;49.986;18.950;2022-08-04T22:31:57;17.23;;;8.95;;
37323;SDS011;23205;49.986;18.950;2022-08-04T22:36:57;16.13;;;9.57;;
37323;SDS011;23205;49.986;18.950;2022-08-04T22:41:58;16.92;;;9.13;;
37323;SDS011;23205;49.986;18.950;2022-08-04T22:47:01;15.10;;;9.95;;
37323;SDS011;23205;49.986;18.950;2022-08-04T22:52:02;17.38;;;9.25;;
37323;SDS011;23205;49.986;18.950;2022-08-04T22:57:03;15.45;;;9.35;;
37323;SDS011;23205;49.986;18.950;2022-08-04T23:02:04;17.30;;;9.63;;
37323;SDS011;23205;49.986;18.950;2022-08-04T23:07:05;20.73;;;10.43;;
37323;SDS011;23205;49.986;18.950;2022-08-04T23:12:06;14.60;;;9.02;;
37323;SDS011;23205;49.986;18.950;2022-08-04T23:17:07;12.95;;;8.90;;
37323;SDS011;23205;49.986;18.950;2022-08-04T23:22:08;13.57;;;9.15;;
37323;SDS011;23205;49.986;18.950;2022-08-04T23:27:09;17.80;;;8.82;;
37323;SDS011;23205;49.986;18.950;2022-08-04T23:32:10;12.95;;;8.40;;
37323;SDS011;23205;49.986;18.950;2022-08-04T23:37:11;12.30;;;8.13;;
37323;SDS011;23205;49.986;18.950;2022-08-04T23:42:12;14.23;;;8.45;;
37323;SDS011;23205;49.986;18.950;2022-08-04T23:47:12;20.45;;;10.85;;
37323;SDS011;23205;49.986;18.950;2022-08-04T23:52:14;17.98;;;10.77;;
37323;SDS011;23205;49.986;18.950;2022-08-04T23:57:16;16.77;;;11.05;;
